sensor_id;sensor_type;location;lat;lon;timestamp;temperature;humidity
38480;DHT22;62333;51.980;5.934;2022-07-29T00:02:14;21.20;52.70
38480;DHT22;62333;51.980;5.934;2022-07-29T00:04:39;21.20;52.70
38480;DHT22;62333;51.980;5.934;2022-07-29T00:07:05;21.20;52.70
38480;DHT22;62333;51.980;5.934;2022-07-29T00:09:31;21.20;52.80
38480;DHT22;62333;51.980;5.934;2022-07-29T00:11:59;21.10;52.90
38480;DHT22;62333;51.980;5.934;2022-07-29T00:14:26;21.10;52.90
38480;DHT22;62333;51.980;5.934;2022-07-29T00:16:52;21.10;53.00
38480;DHT22;62333;51.980;5.934;2022-07-29T00:19:17;21.10;53.20
38480;DHT22;62333;51.980;5.934;2022-07-29T00:21:43;21.00;53.30
38480;DHT22;62333;51.980;5.934;2022-07-29T00:24:09;21.00;53.50
38480;DHT22;62333;51.980;5.934;2022-07-29T00:26:35;21.00;53.60
38480;DHT22;62333;51.980;5.934;2022-07-29T00:29:02;21.00;53.60
38480;DHT22;62333;51.980;5.934;2022-07-29T00:31:28;21.00;53.60
38480;DHT22;62333;51.980;5.934;2022-07-29T00:33:54;21.00;53.60
38480;DHT22;62333;51.980;5.934;2022-07-29T00:36:20;21.00;53.60
38480;DHT22;62333;51.980;5.934;2022-07-29T00:38:50;20.90;53.70
38480;DHT22;62333;51.980;5.934;2022-07-29T00:41:17;20.90;53.70
38480;DHT22;62333;51.980;5.934;2022-07-29T00:43:43;21.00;53.80
38480;DHT22;62333;51.980;5.934;2022-07-29T00:46:09;20.90;53.80
38480;DHT22;62333;51.980;5.934;2022-07-29T00:48:34;20.90;53.80
38480;DHT22;62333;51.980;5.934;2022-07-29T00:51:03;20.90;54.50
38480;DHT22;62333;51.980;5.934;2022-07-29T00:53:30;20.90;53.90
38480;DHT22;62333;51.980;5.934;2022-07-29T00:55:57;20.90;54.00
38480;DHT22;62333;51.980;5.934;2022-07-29T00:58:24;20.90;54.00
38480;DHT22;62333;51.980;5.934;2022-07-29T01:00:50;20.80;54.00
38480;DHT22;62333;51.980;5.934;2022-07-29T01:03:16;20.70;54.10
38480;DHT22;62333;51.980;5.934;2022-07-29T01:05:43;20.70;54.20
38480;DHT22;62333;51.980;5.934;2022-07-29T01:08:11;20.70;54.40
38480;DHT22;62333;51.980;5.934;2022-07-29T01:10:38;20.70;54.40
38480;DHT22;62333;51.980;5.934;2022-07-29T01:13:04;20.70;54.50
38480;DHT22;62333;51.980;5.934;2022-07-29T01:15:31;20.70;54.60
38480;DHT22;62333;51.980;5.934;2022-07-29T01:18:28;20.70;54.70
38480;DHT22;62333;51.980;5.934;2022-07-29T01:26:40;20.70;54.70
38480;DHT22;62333;51.980;5.934;2022-07-29T01:34:20;20.60;54.90
38480;DHT22;62333;51.980;5.934;2022-07-29T01:36:57;20.60;54.90
38480;DHT22;62333;51.980;5.934;2022-07-29T01:39:32;20.60;55.00
38480;DHT22;62333;51.980;5.934;2022-07-29T01:45:15;20.60;55.20
38480;DHT22;62333;51.980;5.934;2022-07-29T01:47:56;20.50;55.20
38480;DHT22;62333;51.980;5.934;2022-07-29T01:50:45;20.50;55.40
38480;DHT22;62333;51.980;5.934;2022-07-29T01:53:13;20.50;55.50
38480;DHT22;62333;51.980;5.934;2022-07-29T01:55:44;20.40;55.40
38480;DHT22;62333;51.980;5.934;2022-07-29T01:58:11;20.50;55.40
38480;DHT22;62333;51.980;5.934;2022-07-29T02:00:38;20.50;55.50
38480;DHT22;62333;51.980;5.934;2022-07-29T02:03:09;20.50;55.50
38480;DHT22;62333;51.980;5.934;2022-07-29T02:05:38;20.40;55.50
38480;DHT22;62333;51.980;5.934;2022-07-29T02:08:05;20.40;55.60
38480;DHT22;62333;51.980;5.934;2022-07-29T02:10:33;20.40;55.60
38480;DHT22;62333;51.980;5.934;2022-07-29T02:12:59;20.40;55.60
38480;DHT22;62333;51.980;5.934;2022-07-29T02:15:29;20.40;55.60
38480;DHT22;62333;51.980;5.934;2022-07-29T02:18:12;20.40;55.70
38480;DHT22;62333;51.980;5.934;2022-07-29T02:20:42;20.40;55.70
38480;DHT22;62333;51.980;5.934;2022-07-29T02:23:11;20.40;55.80
38480;DHT22;62333;51.980;5.934;2022-07-29T02:25:38;20.40;56.00
38480;DHT22;62333;51.980;5.934;2022-07-29T02:28:07;20.50;56.10
38480;DHT22;62333;51.980;5.934;2022-07-29T02:30:35;20.50;56.00
38480;DHT22;62333;51.980;5.934;2022-07-29T02:33:02;20.50;56.00
38480;DHT22;62333;51.980;5.934;2022-07-29T02:35:29;20.50;56.00
38480;DHT22;62333;51.980;5.934;2022-07-29T02:37:55;20.50;56.00
38480;DHT22;62333;51.980;5.934;2022-07-29T02:40:41;20.50;56.00
38480;DHT22;62333;51.980;5.934;2022-07-29T02:43:07;20.50;56.10
38480;DHT22;62333;51.980;5.934;2022-07-29T02:45:34;20.50;56.10
38480;DHT22;62333;51.980;5.934;2022-07-29T02:48:04;20.50;56.30
38480;DHT22;62333;51.980;5.934;2022-07-29T02:50:43;20.50;56.50
38480;DHT22;62333;51.980;5.934;2022-07-29T02:53:16;20.50;57.20
38480;DHT22;62333;51.980;5.934;2022-07-29T02:55:56;20.40;56.70
38480;DHT22;62333;51.980;5.934;2022-07-29T03:00:53;20.30;57.20
38480;DHT22;62333;51.980;5.934;2022-07-29T03:03:21;20.30;57.10
38480;DHT22;62333;51.980;5.934;2022-07-29T03:05:47;20.20;57.50
38480;DHT22;62333;51.980;5.934;2022-07-29T03:08:12;20.20;57.60
38480;DHT22;62333;51.980;5.934;2022-07-29T03:10:43;20.20;57.70
38480;DHT22;62333;51.980;5.934;2022-07-29T03:13:11;20.20;57.80
38480;DHT22;62333;51.980;5.934;2022-07-29T03:15:38;20.20;58.00
38480;DHT22;62333;51.980;5.934;2022-07-29T03:18:05;20.20;58.60
38480;DHT22;62333;51.980;5.934;2022-07-29T03:20:31;20.10;59.00
38480;DHT22;62333;51.980;5.934;2022-07-29T03:22:57;20.10;59.40
38480;DHT22;62333;51.980;5.934;2022-07-29T03:25:23;20.00;59.90
38480;DHT22;62333;51.980;5.934;2022-07-29T03:27:49;20.00;60.40
38480;DHT22;62333;51.980;5.934;2022-07-29T03:30:15;19.90;60.70
38480;DHT22;62333;51.980;5.934;2022-07-29T03:32:41;19.90;61.00
38480;DHT22;62333;51.980;5.934;2022-07-29T03:35:07;19.80;61.40
38480;DHT22;62333;51.980;5.934;2022-07-29T03:37:34;19.70;61.70
38480;DHT22;62333;51.980;5.934;2022-07-29T03:40:03;19.70;62.30
38480;DHT22;62333;51.980;5.934;2022-07-29T03:42:32;19.60;62.70
38480;DHT22;62333;51.980;5.934;2022-07-29T03:45:01;19.50;62.80
38480;DHT22;62333;51.980;5.934;2022-07-29T03:47:29;19.50;62.90
38480;DHT22;62333;51.980;5.934;2022-07-29T03:50:00;19.40;63.00
38480;DHT22;62333;51.980;5.934;2022-07-29T03:52:26;19.30;63.20
38480;DHT22;62333;51.980;5.934;2022-07-29T03:54:52;19.30;63.30
38480;DHT22;62333;51.980;5.934;2022-07-29T03:57:20;19.30;63.30
38480;DHT22;62333;51.980;5.934;2022-07-29T03:59:50;19.30;63.30
38480;DHT22;62333;51.980;5.934;2022-07-29T04:02:16;19.30;63.30
38480;DHT22;62333;51.980;5.934;2022-07-29T04:04:42;19.30;63.30
38480;DHT22;62333;51.980;5.934;2022-07-29T04:07:11;19.30;63.20
38480;DHT22;62333;51.980;5.934;2022-07-29T04:09:37;19.30;63.30
38480;DHT22;62333;51.980;5.934;2022-07-29T04:12:03;19.30;63.30
38480;DHT22;62333;51.980;5.934;2022-07-29T04:14:30;19.30;63.70
38480;DHT22;62333;51.980;5.934;2022-07-29T04:16:56;19.20;63.90
38480;DHT22;62333;51.980;5.934;2022-07-29T04:19:22;19.10;64.00
38480;DHT22;62333;51.980;5.934;2022-07-29T04:21:48;19.20;64.30
38480;DHT22;62333;51.980;5.934;2022-07-29T04:24:13;19.10;64.50
38480;DHT22;62333;51.980;5.934;2022-07-29T04:26:39;19.10;64.50
38480;DHT22;62333;51.980;5.934;2022-07-29T04:29:05;19.10;64.40
38480;DHT22;62333;51.980;5.934;2022-07-29T04:31:30;19.10;64.50
38480;DHT22;62333;51.980;5.934;2022-07-29T04:33:56;19.10;64.70
38480;DHT22;62333;51.980;5.934;2022-07-29T04:36:22;19.00;64.90
38480;DHT22;62333;51.980;5.934;2022-07-29T04:38:47;19.00;65.10
38480;DHT22;62333;51.980;5.934;2022-07-29T04:41:13;19.00;65.10
38480;DHT22;62333;51.980;5.934;2022-07-29T04:43:38;19.00;65.10
38480;DHT22;62333;51.980;5.934;2022-07-29T04:46:06;19.00;65.20
38480;DHT22;62333;51.980;5.934;2022-07-29T04:48:32;19.00;65.50
38480;DHT22;62333;51.980;5.934;2022-07-29T04:50:58;19.00;65.50
38480;DHT22;62333;51.980;5.934;2022-07-29T04:53:24;19.00;65.70
38480;DHT22;62333;51.980;5.934;2022-07-29T04:55:50;19.00;65.80
38480;DHT22;62333;51.980;5.934;2022-07-29T04:58:15;18.90;65.90
38480;DHT22;62333;51.980;5.934;2022-07-29T05:00:41;18.90;65.90
38480;DHT22;62333;51.980;5.934;2022-07-29T05:03:07;18.90;65.80
38480;DHT22;62333;51.980;5.934;2022-07-29T05:05:32;18.90;65.70
38480;DHT22;62333;51.980;5.934;2022-07-29T05:07:58;18.80;65.70
38480;DHT22;62333;51.980;5.934;2022-07-29T05:10:24;18.80;65.70
38480;DHT22;62333;51.980;5.934;2022-07-29T05:12:50;18.80;65.60
38480;DHT22;62333;51.980;5.934;2022-07-29T05:15:15;18.80;65.60
38480;DHT22;62333;51.980;5.934;2022-07-29T05:17:43;18.90;65.50
38480;DHT22;62333;51.980;5.934;2022-07-29T05:20:09;18.90;65.50
38480;DHT22;62333;51.980;5.934;2022-07-29T05:22:35;18.90;65.20
38480;DHT22;62333;51.980;5.934;2022-07-29T05:25:01;18.90;65.10
38480;DHT22;62333;51.980;5.934;2022-07-29T05:27:26;18.90;65.00
38480;DHT22;62333;51.980;5.934;2022-07-29T05:29:52;18.90;64.90
38480;DHT22;62333;51.980;5.934;2022-07-29T05:32:18;18.90;64.80
38480;DHT22;62333;51.980;5.934;2022-07-29T05:34:43;18.90;64.70
38480;DHT22;62333;51.980;5.934;2022-07-29T05:37:09;18.90;64.50
38480;DHT22;62333;51.980;5.934;2022-07-29T05:39:34;18.80;64.50
38480;DHT22;62333;51.980;5.934;2022-07-29T05:42:00;18.70;64.70
38480;DHT22;62333;51.980;5.934;2022-07-29T05:44:26;18.60;65.00
38480;DHT22;62333;51.980;5.934;2022-07-29T05:46:51;18.50;65.30
38480;DHT22;62333;51.980;5.934;2022-07-29T05:49:17;18.50;65.50
38480;DHT22;62333;51.980;5.934;2022-07-29T05:51:43;18.40;65.60
38480;DHT22;62333;51.980;5.934;2022-07-29T05:54:09;18.40;65.80
38480;DHT22;62333;51.980;5.934;2022-07-29T05:56:36;18.40;65.90
38480;DHT22;62333;51.980;5.934;2022-07-29T05:59:02;18.50;66.10
38480;DHT22;62333;51.980;5.934;2022-07-29T06:01:28;18.50;66.10
38480;DHT22;62333;51.980;5.934;2022-07-29T06:03:54;18.60;66.00
38480;DHT22;62333;51.980;5.934;2022-07-29T06:06:20;18.60;65.90
38480;DHT22;62333;51.980;5.934;2022-07-29T06:08:45;18.50;66.10
38480;DHT22;62333;51.980;5.934;2022-07-29T06:11:11;18.60;66.20
38480;DHT22;62333;51.980;5.934;2022-07-29T06:13:37;18.60;66.30
38480;DHT22;62333;51.980;5.934;2022-07-29T06:16:03;18.60;66.20
38480;DHT22;62333;51.980;5.934;2022-07-29T06:18:29;18.60;66.20
38480;DHT22;62333;51.980;5.934;2022-07-29T06:20:55;18.70;66.20
38480;DHT22;62333;51.980;5.934;2022-07-29T06:23:21;18.70;66.10
38480;DHT22;62333;51.980;5.934;2022-07-29T06:25:47;18.70;65.90
38480;DHT22;62333;51.980;5.934;2022-07-29T06:28:13;18.70;65.80
38480;DHT22;62333;51.980;5.934;2022-07-29T06:30:40;18.80;65.70
38480;DHT22;62333;51.980;5.934;2022-07-29T06:33:05;18.80;65.70
38480;DHT22;62333;51.980;5.934;2022-07-29T06:35:34;18.80;65.50
38480;DHT22;62333;51.980;5.934;2022-07-29T06:38:01;18.80;65.30
38480;DHT22;62333;51.980;5.934;2022-07-29T06:40:27;18.80;65.40
38480;DHT22;62333;51.980;5.934;2022-07-29T06:43:11;18.80;65.40
38480;DHT22;62333;51.980;5.934;2022-07-29T06:45:37;18.80;65.50
38480;DHT22;62333;51.980;5.934;2022-07-29T06:48:06;18.90;65.20
38480;DHT22;62333;51.980;5.934;2022-07-29T06:50:31;18.90;65.10
38480;DHT22;62333;51.980;5.934;2022-07-29T06:52:57;19.00;65.30
38480;DHT22;62333;51.980;5.934;2022-07-29T06:55:23;19.00;65.10
38480;DHT22;62333;51.980;5.934;2022-07-29T06:57:48;19.10;64.80
38480;DHT22;62333;51.980;5.934;2022-07-29T07:00:14;19.20;64.60
38480;DHT22;62333;51.980;5.934;2022-07-29T07:02:40;19.30;64.40
38480;DHT22;62333;51.980;5.934;2022-07-29T07:05:06;19.40;64.40
38480;DHT22;62333;51.980;5.934;2022-07-29T07:07:32;19.50;64.20
38480;DHT22;62333;51.980;5.934;2022-07-29T07:09:57;19.50;64.10
38480;DHT22;62333;51.980;5.934;2022-07-29T07:12:23;19.60;64.10
38480;DHT22;62333;51.980;5.934;2022-07-29T07:14:49;19.60;63.80
38480;DHT22;62333;51.980;5.934;2022-07-29T07:17:14;19.60;63.70
38480;DHT22;62333;51.980;5.934;2022-07-29T07:19:40;19.60;63.50
38480;DHT22;62333;51.980;5.934;2022-07-29T07:22:05;19.70;63.60
38480;DHT22;62333;51.980;5.934;2022-07-29T07:24:31;19.70;63.60
38480;DHT22;62333;51.980;5.934;2022-07-29T07:26:57;19.70;63.70
38480;DHT22;62333;51.980;5.934;2022-07-29T07:29:22;19.80;63.80
38480;DHT22;62333;51.980;5.934;2022-07-29T07:31:48;19.80;63.80
38480;DHT22;62333;51.980;5.934;2022-07-29T07:34:14;19.80;63.80
38480;DHT22;62333;51.980;5.934;2022-07-29T07:36:39;19.80;63.80
38480;DHT22;62333;51.980;5.934;2022-07-29T07:39:05;19.80;63.80
38480;DHT22;62333;51.980;5.934;2022-07-29T07:41:31;19.80;63.80
38480;DHT22;62333;51.980;5.934;2022-07-29T07:43:57;19.80;63.90
38480;DHT22;62333;51.980;5.934;2022-07-29T07:46:23;19.80;64.50
38480;DHT22;62333;51.980;5.934;2022-07-29T07:48:48;19.80;63.80
38480;DHT22;62333;51.980;5.934;2022-07-29T07:51:14;19.80;63.90
38480;DHT22;62333;51.980;5.934;2022-07-29T07:53:40;19.80;63.90
38480;DHT22;62333;51.980;5.934;2022-07-29T07:56:05;19.90;64.00
38480;DHT22;62333;51.980;5.934;2022-07-29T07:58:32;19.80;63.80
38480;DHT22;62333;51.980;5.934;2022-07-29T08:00:58;19.90;63.80
38480;DHT22;62333;51.980;5.934;2022-07-29T08:03:23;19.90;63.70
38480;DHT22;62333;51.980;5.934;2022-07-29T08:05:49;19.90;63.70
38480;DHT22;62333;51.980;5.934;2022-07-29T08:08:17;19.90;63.70
38480;DHT22;62333;51.980;5.934;2022-07-29T08:10:43;19.90;63.70
38480;DHT22;62333;51.980;5.934;2022-07-29T08:13:18;20.00;63.80
38480;DHT22;62333;51.980;5.934;2022-07-29T08:15:44;20.00;63.70
38480;DHT22;62333;51.980;5.934;2022-07-29T08:18:11;20.00;63.60
38480;DHT22;62333;51.980;5.934;2022-07-29T08:20:38;20.00;63.60
38480;DHT22;62333;51.980;5.934;2022-07-29T08:23:05;20.10;63.70
38480;DHT22;62333;51.980;5.934;2022-07-29T08:25:32;20.10;63.70
38480;DHT22;62333;51.980;5.934;2022-07-29T08:27:58;20.10;63.70
38480;DHT22;62333;51.980;5.934;2022-07-29T08:30:24;20.10;63.70
38480;DHT22;62333;51.980;5.934;2022-07-29T08:32:50;20.10;63.90
38480;DHT22;62333;51.980;5.934;2022-07-29T08:35:19;20.10;63.90
38480;DHT22;62333;51.980;5.934;2022-07-29T08:37:44;20.10;64.00
38480;DHT22;62333;51.980;5.934;2022-07-29T08:40:11;20.00;64.10
38480;DHT22;62333;51.980;5.934;2022-07-29T08:42:37;20.10;64.20
38480;DHT22;62333;51.980;5.934;2022-07-29T08:45:04;20.10;64.20
38480;DHT22;62333;51.980;5.934;2022-07-29T08:47:30;20.10;64.20
38480;DHT22;62333;51.980;5.934;2022-07-29T08:49:56;20.10;64.10
38480;DHT22;62333;51.980;5.934;2022-07-29T08:52:25;20.10;64.00
38480;DHT22;62333;51.980;5.934;2022-07-29T08:54:52;20.20;64.10
38480;DHT22;62333;51.980;5.934;2022-07-29T08:57:19;20.20;64.20
38480;DHT22;62333;51.980;5.934;2022-07-29T08:59:46;20.20;64.20
38480;DHT22;62333;51.980;5.934;2022-07-29T09:02:19;20.20;64.10
38480;DHT22;62333;51.980;5.934;2022-07-29T09:04:45;20.20;64.00
38480;DHT22;62333;51.980;5.934;2022-07-29T09:07:16;20.10;64.00
38480;DHT22;62333;51.980;5.934;2022-07-29T09:09:42;20.00;64.20
38480;DHT22;62333;51.980;5.934;2022-07-29T09:12:09;20.00;64.30
38480;DHT22;62333;51.980;5.934;2022-07-29T09:14:37;19.90;64.30
38480;DHT22;62333;51.980;5.934;2022-07-29T09:17:04;19.90;64.30
38480;DHT22;62333;51.980;5.934;2022-07-29T09:19:34;19.90;64.40
38480;DHT22;62333;51.980;5.934;2022-07-29T09:22:05;19.90;64.70
38480;DHT22;62333;51.980;5.934;2022-07-29T09:27:00;19.80;64.80
38480;DHT22;62333;51.980;5.934;2022-07-29T09:29:27;19.80;64.70
38480;DHT22;62333;51.980;5.934;2022-07-29T09:31:54;19.80;64.80
38480;DHT22;62333;51.980;5.934;2022-07-29T09:34:28;19.80;64.90
38480;DHT22;62333;51.980;5.934;2022-07-29T09:36:55;19.80;65.00
38480;DHT22;62333;51.980;5.934;2022-07-29T09:39:34;19.80;65.10
38480;DHT22;62333;51.980;5.934;2022-07-29T09:42:03;19.90;65.30
38480;DHT22;62333;51.980;5.934;2022-07-29T09:44:46;19.90;65.40
38480;DHT22;62333;51.980;5.934;2022-07-29T09:47:13;20.00;65.40
38480;DHT22;62333;51.980;5.934;2022-07-29T09:49:54;20.00;65.50
38480;DHT22;62333;51.980;5.934;2022-07-29T09:52:20;20.00;65.30
38480;DHT22;62333;51.980;5.934;2022-07-29T09:54:46;20.00;65.30
38480;DHT22;62333;51.980;5.934;2022-07-29T09:57:27;20.00;65.30
38480;DHT22;62333;51.980;5.934;2022-07-29T09:59:57;20.10;65.30
38480;DHT22;62333;51.980;5.934;2022-07-29T10:02:28;20.10;65.30
38480;DHT22;62333;51.980;5.934;2022-07-29T10:04:55;20.30;65.30
38480;DHT22;62333;51.980;5.934;2022-07-29T10:07:21;20.30;65.10
38480;DHT22;62333;51.980;5.934;2022-07-29T10:09:54;20.50;65.70
38480;DHT22;62333;51.980;5.934;2022-07-29T10:12:21;20.60;65.00
38480;DHT22;62333;51.980;5.934;2022-07-29T10:14:47;20.60;64.80
38480;DHT22;62333;51.980;5.934;2022-07-29T10:17:13;20.70;64.90
38480;DHT22;62333;51.980;5.934;2022-07-29T10:19:40;20.80;64.80
38480;DHT22;62333;51.980;5.934;2022-07-29T10:22:09;21.00;64.80
38480;DHT22;62333;51.980;5.934;2022-07-29T10:24:36;21.20;63.80
38480;DHT22;62333;51.980;5.934;2022-07-29T10:27:06;21.30;63.30
38480;DHT22;62333;51.980;5.934;2022-07-29T10:29:32;21.50;63.30
38480;DHT22;62333;51.980;5.934;2022-07-29T10:35:00;21.80;62.70
38480;DHT22;62333;51.980;5.934;2022-07-29T10:37:51;22.00;62.10
38480;DHT22;62333;51.980;5.934;2022-07-29T10:43:27;22.40;60.40
38480;DHT22;62333;51.980;5.934;2022-07-29T10:45:58;22.70;59.70
38480;DHT22;62333;51.980;5.934;2022-07-29T10:48:24;22.90;59.20
38480;DHT22;62333;51.980;5.934;2022-07-29T10:50:55;23.00;58.80
38480;DHT22;62333;51.980;5.934;2022-07-29T10:53:25;23.10;58.40
38480;DHT22;62333;51.980;5.934;2022-07-29T10:56:24;23.20;58.10
38480;DHT22;62333;51.980;5.934;2022-07-29T11:01:56;23.40;57.90
38480;DHT22;62333;51.980;5.934;2022-07-29T11:07:10;23.70;57.50
38480;DHT22;62333;51.980;5.934;2022-07-29T11:09:36;23.90;56.90
38480;DHT22;62333;51.980;5.934;2022-07-29T11:12:02;24.20;56.70
38480;DHT22;62333;51.980;5.934;2022-07-29T11:14:57;24.50;55.60
38480;DHT22;62333;51.980;5.934;2022-07-29T11:17:24;24.80;54.00
38480;DHT22;62333;51.980;5.934;2022-07-29T11:19:50;25.00;53.40
38480;DHT22;62333;51.980;5.934;2022-07-29T11:22:33;25.30;52.90
38480;DHT22;62333;51.980;5.934;2022-07-29T11:25:15;25.50;52.50
38480;DHT22;62333;51.980;5.934;2022-07-29T11:27:42;25.70;52.40
38480;DHT22;62333;51.980;5.934;2022-07-29T11:30:08;26.00;52.20
38480;DHT22;62333;51.980;5.934;2022-07-29T11:32:40;26.40;51.30
38480;DHT22;62333;51.980;5.934;2022-07-29T11:35:19;26.90;49.60
38480;DHT22;62333;51.980;5.934;2022-07-29T11:43:50;28.40;47.80
38480;DHT22;62333;51.980;5.934;2022-07-29T11:46:46;28.90;47.00
38480;DHT22;62333;51.980;5.934;2022-07-29T11:49:19;29.30;45.50
38480;DHT22;62333;51.980;5.934;2022-07-29T11:51:54;29.60;45.00
38480;DHT22;62333;51.980;5.934;2022-07-29T11:54:34;29.60;44.50
38480;DHT22;62333;51.980;5.934;2022-07-29T11:57:00;29.80;44.00
38480;DHT22;62333;51.980;5.934;2022-07-29T11:59:26;29.90;44.00
38480;DHT22;62333;51.980;5.934;2022-07-29T12:01:59;29.90;43.60
38480;DHT22;62333;51.980;5.934;2022-07-29T12:04:25;29.80;43.60
38480;DHT22;62333;51.980;5.934;2022-07-29T12:06:54;29.80;43.00
38480;DHT22;62333;51.980;5.934;2022-07-29T12:09:20;29.90;42.70
38480;DHT22;62333;51.980;5.934;2022-07-29T12:11:47;29.90;42.30
38480;DHT22;62333;51.980;5.934;2022-07-29T12:14:30;30.10;42.00
38480;DHT22;62333;51.980;5.934;2022-07-29T12:16:57;30.50;41.90
38480;DHT22;62333;51.980;5.934;2022-07-29T12:19:23;31.10;40.80
38480;DHT22;62333;51.980;5.934;2022-07-29T12:21:55;31.40;40.50
38480;DHT22;62333;51.980;5.934;2022-07-29T12:24:24;32.00;40.40
38480;DHT22;62333;51.980;5.934;2022-07-29T12:26:57;32.70;40.00
38480;DHT22;62333;51.980;5.934;2022-07-29T12:29:23;33.20;38.60
38480;DHT22;62333;51.980;5.934;2022-07-29T12:31:53;33.50;38.10
38480;DHT22;62333;51.980;5.934;2022-07-29T12:34:26;33.70;37.10
38480;DHT22;62333;51.980;5.934;2022-07-29T12:36:53;34.00;36.90
38480;DHT22;62333;51.980;5.934;2022-07-29T12:39:20;33.90;37.00
38480;DHT22;62333;51.980;5.934;2022-07-29T12:41:46;33.50;35.90
38480;DHT22;62333;51.980;5.934;2022-07-29T12:44:12;33.00;36.30
38480;DHT22;62333;51.980;5.934;2022-07-29T12:46:37;32.60;36.90
38480;DHT22;62333;51.980;5.934;2022-07-29T12:49:03;32.40;37.50
38480;DHT22;62333;51.980;5.934;2022-07-29T12:51:37;32.70;38.40
38480;DHT22;62333;51.980;5.934;2022-07-29T12:54:08;33.20;37.20
38480;DHT22;62333;51.980;5.934;2022-07-29T12:56:39;33.80;36.50
38480;DHT22;62333;51.980;5.934;2022-07-29T12:59:18;34.30;36.00
38480;DHT22;62333;51.980;5.934;2022-07-29T13:01:45;34.70;34.80
38480;DHT22;62333;51.980;5.934;2022-07-29T13:04:28;34.70;34.30
38480;DHT22;62333;51.980;5.934;2022-07-29T13:07:04;35.00;33.80
38480;DHT22;62333;51.980;5.934;2022-07-29T13:09:43;35.20;33.20
38480;DHT22;62333;51.980;5.934;2022-07-29T13:12:12;35.50;33.40
38480;DHT22;62333;51.980;5.934;2022-07-29T13:14:43;35.50;33.40
38480;DHT22;62333;51.980;5.934;2022-07-29T13:17:20;35.60;33.10
38480;DHT22;62333;51.980;5.934;2022-07-29T13:19:50;35.80;32.80
38480;DHT22;62333;51.980;5.934;2022-07-29T13:22:19;35.60;32.80
38480;DHT22;62333;51.980;5.934;2022-07-29T13:24:48;35.50;32.90
38480;DHT22;62333;51.980;5.934;2022-07-29T13:27:16;35.60;32.90
38480;DHT22;62333;51.980;5.934;2022-07-29T13:29:42;35.60;33.10
38480;DHT22;62333;51.980;5.934;2022-07-29T13:32:08;35.50;33.40
38480;DHT22;62333;51.980;5.934;2022-07-29T13:34:33;35.20;33.30
38480;DHT22;62333;51.980;5.934;2022-07-29T13:36:59;35.10;33.00
38480;DHT22;62333;51.980;5.934;2022-07-29T13:39:25;35.30;33.10
38480;DHT22;62333;51.980;5.934;2022-07-29T13:41:51;35.70;32.90
38480;DHT22;62333;51.980;5.934;2022-07-29T13:44:16;36.00;32.40
38480;DHT22;62333;51.980;5.934;2022-07-29T13:46:42;36.40;32.30
38480;DHT22;62333;51.980;5.934;2022-07-29T13:49:08;36.80;32.10
38480;DHT22;62333;51.980;5.934;2022-07-29T13:51:33;37.10;31.70
38480;DHT22;62333;51.980;5.934;2022-07-29T13:53:59;37.30;31.50
38480;DHT22;62333;51.980;5.934;2022-07-29T13:56:25;37.30;30.70
38480;DHT22;62333;51.980;5.934;2022-07-29T13:58:51;37.10;30.30
38480;DHT22;62333;51.980;5.934;2022-07-29T14:01:17;36.60;30.90
38480;DHT22;62333;51.980;5.934;2022-07-29T14:03:42;36.00;31.30
38480;DHT22;62333;51.980;5.934;2022-07-29T14:06:08;35.30;31.80
38480;DHT22;62333;51.980;5.934;2022-07-29T14:08:34;34.70;32.70
38480;DHT22;62333;51.980;5.934;2022-07-29T14:11:00;34.10;33.70
38480;DHT22;62333;51.980;5.934;2022-07-29T14:13:25;33.50;33.90
38480;DHT22;62333;51.980;5.934;2022-07-29T14:15:52;33.00;34.20
38480;DHT22;62333;51.980;5.934;2022-07-29T14:18:17;32.40;34.70
38480;DHT22;62333;51.980;5.934;2022-07-29T14:20:43;31.80;35.50
38480;DHT22;62333;51.980;5.934;2022-07-29T14:23:09;31.30;36.00
38480;DHT22;62333;51.980;5.934;2022-07-29T14:25:34;30.90;36.20
38480;DHT22;62333;51.980;5.934;2022-07-29T14:28:00;30.60;36.60
38480;DHT22;62333;51.980;5.934;2022-07-29T14:30:26;30.40;37.00
38480;DHT22;62333;51.980;5.934;2022-07-29T14:32:51;30.20;37.90
38480;DHT22;62333;51.980;5.934;2022-07-29T14:35:17;30.00;37.70
38480;DHT22;62333;51.980;5.934;2022-07-29T14:37:43;29.90;38.00
38480;DHT22;62333;51.980;5.934;2022-07-29T14:40:10;29.80;38.50
38480;DHT22;62333;51.980;5.934;2022-07-29T14:42:36;29.70;38.60
38480;DHT22;62333;51.980;5.934;2022-07-29T14:45:06;29.60;38.80
38480;DHT22;62333;51.980;5.934;2022-07-29T14:47:32;29.40;39.00
38480;DHT22;62333;51.980;5.934;2022-07-29T14:49:58;29.20;39.10
38480;DHT22;62333;51.980;5.934;2022-07-29T14:52:23;29.10;39.10
38480;DHT22;62333;51.980;5.934;2022-07-29T14:54:49;29.00;39.20
38480;DHT22;62333;51.980;5.934;2022-07-29T14:57:14;29.00;39.40
38480;DHT22;62333;51.980;5.934;2022-07-29T14:59:40;28.90;39.60
38480;DHT22;62333;51.980;5.934;2022-07-29T15:02:06;28.80;39.80
38480;DHT22;62333;51.980;5.934;2022-07-29T15:04:31;28.70;40.30
38480;DHT22;62333;51.980;5.934;2022-07-29T15:06:57;28.50;40.40
38480;DHT22;62333;51.980;5.934;2022-07-29T15:09:23;28.30;40.60
38480;DHT22;62333;51.980;5.934;2022-07-29T15:11:49;28.20;40.80
38480;DHT22;62333;51.980;5.934;2022-07-29T15:14:14;28.20;40.80
38480;DHT22;62333;51.980;5.934;2022-07-29T15:16:40;28.20;40.80
38480;DHT22;62333;51.980;5.934;2022-07-29T15:19:08;28.20;41.00
38480;DHT22;62333;51.980;5.934;2022-07-29T15:21:33;28.10;40.90
38480;DHT22;62333;51.980;5.934;2022-07-29T15:23:59;28.00;41.00
38480;DHT22;62333;51.980;5.934;2022-07-29T15:26:25;28.00;41.20
38480;DHT22;62333;51.980;5.934;2022-07-29T15:28:51;27.90;41.30
38480;DHT22;62333;51.980;5.934;2022-07-29T15:31:16;27.90;41.50
38480;DHT22;62333;51.980;5.934;2022-07-29T15:33:44;27.90;41.50
38480;DHT22;62333;51.980;5.934;2022-07-29T15:36:10;27.90;41.50
38480;DHT22;62333;51.980;5.934;2022-07-29T15:38:38;27.90;41.50
38480;DHT22;62333;51.980;5.934;2022-07-29T15:41:06;27.90;41.30
38480;DHT22;62333;51.980;5.934;2022-07-29T15:43:32;27.80;41.40
38480;DHT22;62333;51.980;5.934;2022-07-29T15:45:57;27.70;41.60
38480;DHT22;62333;51.980;5.934;2022-07-29T15:48:41;27.70;41.60
38480;DHT22;62333;51.980;5.934;2022-07-29T15:51:07;27.60;41.60
38480;DHT22;62333;51.980;5.934;2022-07-29T15:53:33;27.60;41.80
38480;DHT22;62333;51.980;5.934;2022-07-29T15:55:59;27.60;42.20
38480;DHT22;62333;51.980;5.934;2022-07-29T15:58:25;27.60;42.30
38480;DHT22;62333;51.980;5.934;2022-07-29T16:00:50;27.60;42.10
38480;DHT22;62333;51.980;5.934;2022-07-29T16:03:16;27.60;42.10
38480;DHT22;62333;51.980;5.934;2022-07-29T16:05:42;27.50;42.10
38480;DHT22;62333;51.980;5.934;2022-07-29T16:08:07;27.60;42.20
38480;DHT22;62333;51.980;5.934;2022-07-29T16:10:33;27.50;42.20
38480;DHT22;62333;51.980;5.934;2022-07-29T16:12:59;27.60;42.30